sensor_id;sensor_type;location;lat;lon;timestamp;pressure;altitude;pressure_sealevel;temperature;humidity
22181;BME280;11256;50.830;12.834;2023-06-10T00:02:33;97467.63;;;22.11;47.57
22181;BME280;11256;50.830;12.834;2023-06-10T00:07:34;97442.31;;;21.90;47.63
22181;BME280;11256;50.830;12.834;2023-06-10T00:12:38;97445.50;;;21.92;47.49
22181;BME280;11256;50.830;12.834;2023-06-10T00:17:38;97430.66;;;21.81;47.96
22181;BME280;11256;50.830;12.834;2023-06-10T00:22:39;97417.78;;;21.69;47.67
22181;BME280;11256;50.830;12.834;2023-06-10T00:27:39;97417.31;;;21.67;47.77
22181;BME280;11256;50.830;12.834;2023-06-10T00:32:40;97426.13;;;21.57;47.93
22181;BME280;11256;50.830;12.834;2023-06-10T00:37:40;97436.44;;;21.45;48.17
22181;BME280;11256;50.830;12.834;2023-06-10T00:42:40;97431.38;;;21.31;48.02
22181;BME280;11256;50.830;12.834;2023-06-10T00:47:41;97459.13;;;21.23;48.12
22181;BME280;11256;50.830;12.834;2023-06-10T00:52:42;97474.06;;;21.22;48.85
22181;BME280;11256;50.830;12.834;2023-06-10T00:57:45;97453.25;;;21.09;48.70
22181;BME280;11256;50.830;12.834;2023-06-10T01:02:46;97444.34;;;21.00;49.07
22181;BME280;11256;50.830;12.834;2023-06-10T01:07:55;97452.63;;;21.00;48.99
22181;BME280;11256;50.830;12.834;2023-06-10T01:13:02;97442.69;;;20.83;49.05
22181;BME280;11256;50.830;12.834;2023-06-10T01:18:08;97436.88;;;20.73;49.28
22181;BME280;11256;50.830;12.834;2023-06-10T01:23:10;97447.47;;;20.71;49.45
22181;BME280;11256;50.830;12.834;2023-06-10T01:28:20;97445.66;;;20.63;49.41
22181;BME280;11256;50.830;12.834;2023-06-10T01:33:29;97448.66;;;20.58;49.72
22181;BME280;11256;50.830;12.834;2023-06-10T01:38:36;97445.94;;;20.46;49.79
22181;BME280;11256;50.830;12.834;2023-06-10T01:43:38;97463.88;;;20.40;49.91
22181;BME280;11256;50.830;12.834;2023-06-10T01:48:39;97457.16;;;20.25;49.75
22181;BME280;11256;50.830;12.834;2023-06-10T01:53:39;97473.22;;;20.11;49.71
22181;BME280;11256;50.830;12.834;2023-06-10T01:58:39;97479.06;;;19.98;50.11
22181;BME280;11256;50.830;12.834;2023-06-10T02:03:40;97489.84;;;19.91;50.18
22181;BME280;11256;50.830;12.834;2023-06-10T02:08:41;97503.84;;;19.86;50.52
22181;BME280;11256;50.830;12.834;2023-06-10T02:13:41;97497.91;;;19.72;50.62
22181;BME280;11256;50.830;12.834;2023-06-10T02:18:41;97512.66;;;19.67;51.02
22181;BME280;11256;50.830;12.834;2023-06-10T02:23:43;97506.81;;;19.69;50.84
22181;BME280;11256;50.830;12.834;2023-06-10T02:28:43;97514.59;;;19.55;50.86
22181;BME280;11256;50.830;12.834;2023-06-10T02:33:44;97528.81;;;19.57;51.30
22181;BME280;11256;50.830;12.834;2023-06-10T02:38:45;97531.66;;;19.48;51.27
22181;BME280;11256;50.830;12.834;2023-06-10T02:43:46;97525.78;;;19.38;51.08
22181;BME280;11256;50.830;12.834;2023-06-10T02:48:46;97530.50;;;19.37;51.49
22181;BME280;11256;50.830;12.834;2023-06-10T02:53:53;97513.50;;;19.23;51.55
22181;BME280;11256;50.830;12.834;2023-06-10T02:58:54;97521.09;;;19.26;51.39
22181;BME280;11256;50.830;12.834;2023-06-10T03:03:56;97513.38;;;19.20;51.86
22181;BME280;11256;50.830;12.834;2023-06-10T03:08:57;97519.53;;;19.17;51.63
22181;BME280;11256;50.830;12.834;2023-06-10T03:13:57;97516.66;;;19.13;52.23
22181;BME280;11256;50.830;12.834;2023-06-10T03:19:03;97525.25;;;19.12;52.06
22181;BME280;11256;50.830;12.834;2023-06-10T03:24:06;97519.03;;;19.03;52.06
22181;BME280;11256;50.830;12.834;2023-06-10T03:29:08;97528.44;;;19.02;52.20
22181;BME280;11256;50.830;12.834;2023-06-10T03:34:09;97528.16;;;18.95;52.25
22181;BME280;11256;50.830;12.834;2023-06-10T03:39:10;97527.25;;;18.91;52.08
22181;BME280;11256;50.830;12.834;2023-06-10T03:44:11;97544.31;;;18.96;52.24
22181;BME280;11256;50.830;12.834;2023-06-10T03:49:12;97551.75;;;18.96;52.21
22181;BME280;11256;50.830;12.834;2023-06-10T03:54:12;97552.53;;;18.96;52.04
22181;BME280;11256;50.830;12.834;2023-06-10T03:59:13;97552.22;;;18.98;52.37
22181;BME280;11256;50.830;12.834;2023-06-10T04:04:14;97558.16;;;19.00;52.27
22181;BME280;11256;50.830;12.834;2023-06-10T04:09:16;97553.38;;;18.97;52.27
22181;BME280;11256;50.830;12.834;2023-06-10T04:14:18;97559.09;;;19.04;52.17
22181;BME280;11256;50.830;12.834;2023-06-10T04:19:18;97550.88;;;19.04;51.92
22181;BME280;11256;50.830;12.834;2023-06-10T04:24:18;97559.09;;;19.04;52.34
22181;BME280;11256;50.830;12.834;2023-06-10T04:29:19;97543.03;;;18.94;52.13
22181;BME280;11256;50.830;12.834;2023-06-10T04:34:19;97555.78;;;18.98;52.80
22181;BME280;11256;50.830;12.834;2023-06-10T04:39:20;97536.06;;;18.96;53.02
22181;BME280;11256;50.830;12.834;2023-06-10T04:44:20;97549.25;;;19.03;53.15
22181;BME280;11256;50.830;12.834;2023-06-10T04:49:21;97540.09;;;18.99;53.25
22181;BME280;11256;50.830;12.834;2023-06-10T04:54:22;97547.25;;;19.12;52.85
22181;BME280;11256;50.830;12.834;2023-06-10T04:59:22;97550.91;;;19.16;53.17
22181;BME280;11256;50.830;12.834;2023-06-10T05:04:22;97546.22;;;19.16;53.22
22181;BME280;11256;50.830;12.834;2023-06-10T05:09:23;97554.41;;;19.25;53.39
22181;BME280;11256;50.830;12.834;2023-06-10T05:14:23;97551.19;;;19.23;54.22
22181;BME280;11256;50.830;12.834;2023-06-10T05:19:23;97564.69;;;19.28;54.04
22181;BME280;11256;50.830;12.834;2023-06-10T05:24:24;97562.44;;;19.30;54.79
22181;BME280;11256;50.830;12.834;2023-06-10T05:29:24;97573.78;;;19.40;54.71
22181;BME280;11256;50.830;12.834;2023-06-10T05:34:24;97566.59;;;19.48;54.75
22181;BME280;11256;50.830;12.834;2023-06-10T05:39:25;97570.06;;;19.57;55.79
22181;BME280;11256;50.830;12.834;2023-06-10T05:44:25;97556.31;;;19.57;56.19
22181;BME280;11256;50.830;12.834;2023-06-10T05:49:26;97580.41;;;19.72;55.07
22181;BME280;11256;50.830;12.834;2023-06-10T05:54:26;97569.84;;;19.74;55.92
22181;BME280;11256;50.830;12.834;2023-06-10T05:59:26;97577.19;;;19.82;56.05
22181;BME280;11256;50.830;12.834;2023-06-10T06:04:27;97571.47;;;19.87;56.37
22181;BME280;11256;50.830;12.834;2023-06-10T06:09:27;97570.22;;;19.96;56.90
22181;BME280;11256;50.830;12.834;2023-06-10T06:14:31;97578.38;;;20.05;57.25
22181;BME280;11256;50.830;12.834;2023-06-10T06:19:32;97581.81;;;20.14;57.22
22181;BME280;11256;50.830;12.834;2023-06-10T06:24:32;97569.66;;;20.15;56.99
22181;BME280;11256;50.830;12.834;2023-06-10T06:29:33;97594.56;;;20.30;56.68
22181;BME280;11256;50.830;12.834;2023-06-10T06:34:33;97597.19;;;20.39;56.13
22181;BME280;11256;50.830;12.834;2023-06-10T06:39:34;97591.09;;;20.45;57.56
22181;BME280;11256;50.830;12.834;2023-06-10T06:44:34;97599.09;;;20.62;57.26
22181;BME280;11256;50.830;12.834;2023-06-10T06:49:35;97607.78;;;20.76;56.59
22181;BME280;11256;50.830;12.834;2023-06-10T06:54:35;97602.84;;;20.82;56.34
22181;BME280;11256;50.830;12.834;2023-06-10T06:59:36;97597.09;;;20.99;57.92
22181;BME280;11256;50.830;12.834;2023-06-10T07:04:36;97614.44;;;21.27;57.32
22181;BME280;11256;50.830;12.834;2023-06-10T07:09:37;97623.53;;;21.70;59.02
22181;BME280;11256;50.830;12.834;2023-06-10T07:14:38;97605.94;;;22.37;59.00
22181;BME280;11256;50.830;12.834;2023-06-10T07:19:38;97617.47;;;23.46;58.79
22181;BME280;11256;50.830;12.834;2023-06-10T07:24:38;97628.06;;;24.72;57.49
22181;BME280;11256;50.830;12.834;2023-06-10T07:29:39;97632.16;;;25.37;56.20
22181;BME280;11256;50.830;12.834;2023-06-10T07:34:39;97622.16;;;25.95;54.59
22181;BME280;11256;50.830;12.834;2023-06-10T07:39:39;97626.56;;;26.43;53.71
22181;BME280;11256;50.830;12.834;2023-06-10T07:44:40;97617.16;;;26.58;52.48
22181;BME280;11256;50.830;12.834;2023-06-10T07:49:40;97626.19;;;26.98;51.29
22181;BME280;11256;50.830;12.834;2023-06-10T07:54:41;97633.19;;;27.39;51.53
22181;BME280;11256;50.830;12.834;2023-06-10T07:59:42;97612.16;;;27.52;49.92
22181;BME280;11256;50.830;12.834;2023-06-10T08:04:44;97635.44;;;28.37;50.87
22181;BME280;11256;50.830;12.834;2023-06-10T08:09:44;97618.72;;;29.03;49.54
22181;BME280;11256;50.830;12.834;2023-06-10T08:14:44;97610.44;;;29.86;49.01
22181;BME280;11256;50.830;12.834;2023-06-10T08:19:45;97624.25;;;30.68;47.97
22181;BME280;11256;50.830;12.834;2023-06-10T08:24:45;97628.72;;;31.03;46.68
22181;BME280;11256;50.830;12.834;2023-06-10T08:29:45;97631.66;;;31.33;44.93
22181;BME280;11256;50.830;12.834;2023-06-10T08:34:46;97629.06;;;31.49;44.24
22181;BME280;11256;50.830;12.834;2023-06-10T08:39:46;97635.63;;;31.35;42.89
22181;BME280;11256;50.830;12.834;2023-06-10T08:44:47;97641.06;;;31.09;42.25
22181;BME280;11256;50.830;12.834;2023-06-10T08:49:51;97638.06;;;30.42;40.96
22181;BME280;11256;50.830;12.834;2023-06-10T08:55:00;97637.53;;;29.96;42.29
22181;BME280;11256;50.830;12.834;2023-06-10T09:00:02;97650.00;;;29.81;42.95
22181;BME280;11256;50.830;12.834;2023-06-10T09:05:03;97642.50;;;29.64;43.47
22181;BME280;11256;50.830;12.834;2023-06-10T09:10:04;97638.94;;;29.46;44.13
22181;BME280;11256;50.830;12.834;2023-06-10T09:15:07;97640.59;;;29.33;43.27
22181;BME280;11256;50.830;12.834;2023-06-10T09:20:08;97632.28;;;28.87;43.35
22181;BME280;11256;50.830;12.834;2023-06-10T09:25:11;97645.03;;;29.20;42.51
22181;BME280;11256;50.830;12.834;2023-06-10T09:30:23;97638.66;;;28.95;42.69
22181;BME280;11256;50.830;12.834;2023-06-10T09:35:27;97641.06;;;28.96;42.85
22181;BME280;11256;50.830;12.834;2023-06-10T09:40:27;97658.59;;;28.90;43.40
22181;BME280;11256;50.830;12.834;2023-06-10T09:45:32;97637.09;;;28.48;43.19
22181;BME280;11256;50.830;12.834;2023-06-10T09:50:33;97652.16;;;28.09;42.98
22181;BME280;11256;50.830;12.834;2023-06-10T09:55:34;97657.97;;;27.62;42.54
22181;BME280;11256;50.830;12.834;2023-06-10T10:00:36;97663.28;;;27.16;42.78
22181;BME280;11256;50.830;12.834;2023-06-10T10:05:36;97655.94;;;27.52;43.07
22181;BME280;11256;50.830;12.834;2023-06-10T10:10:36;97667.06;;;27.52;43.14
22181;BME280;11256;50.830;12.834;2023-06-10T10:15:37;97667.84;;;27.49;43.66
22181;BME280;11256;50.830;12.834;2023-06-10T10:20:50;97659.88;;;27.44;44.42
22181;BME280;11256;50.830;12.834;2023-06-10T10:25:53;97654.59;;;27.25;44.04
22181;BME280;11256;50.830;12.834;2023-06-10T10:30:59;97667.44;;;27.47;45.01
22181;BME280;11256;50.830;12.834;2023-06-10T10:36:02;97671.06;;;27.51;45.03
22181;BME280;11256;50.830;12.834;2023-06-10T10:41:04;97669.47;;;27.53;44.46
22181;BME280;11256;50.830;12.834;2023-06-10T10:46:11;97662.28;;;27.56;45.68
22181;BME280;11256;50.830;12.834;2023-06-10T10:51:15;97653.53;;;27.47;45.03
22181;BME280;11256;50.830;12.834;2023-06-10T10:56:16;97648.78;;;27.54;45.09
22181;BME280;11256;50.830;12.834;2023-06-10T11:01:18;97652.25;;;27.30;44.32
22181;BME280;11256;50.830;12.834;2023-06-10T11:06:19;97650.31;;;27.41;44.76
22181;BME280;11256;50.830;12.834;2023-06-10T11:11:24;97652.78;;;27.60;46.25
22181;BME280;11256;50.830;12.834;2023-06-10T11:16:27;97640.84;;;27.60;46.38
22181;BME280;11256;50.830;12.834;2023-06-10T11:21:28;97651.25;;;27.77;46.02
22181;BME280;11256;50.830;12.834;2023-06-10T11:31:42;97642.41;;;27.61;45.42
22181;BME280;11256;50.830;12.834;2023-06-10T11:36:43;97639.25;;;27.62;44.56
22181;BME280;11256;50.830;12.834;2023-06-10T11:41:45;97622.81;;;27.33;43.49
22181;BME280;11256;50.830;12.834;2023-06-10T11:46:47;97619.00;;;26.94;43.79
22181;BME280;11256;50.830;12.834;2023-06-10T11:51:48;97630.22;;;27.08;44.72
22181;BME280;11256;50.830;12.834;2023-06-10T11:56:57;97626.66;;;27.11;44.86
22181;BME280;11256;50.830;12.834;2023-06-10T12:01:58;97611.75;;;27.54;45.93
22181;BME280;11256;50.830;12.834;2023-06-10T12:06:59;97610.94;;;27.43;44.07
22181;BME280;11256;50.830;12.834;2023-06-10T12:12:02;97598.38;;;27.84;43.14
22181;BME280;11256;50.830;12.834;2023-06-10T12:17:02;97599.94;;;27.85;43.70
22181;BME280;11256;50.830;12.834;2023-06-10T12:22:03;97575.66;;;27.78;43.05
22181;BME280;11256;50.830;12.834;2023-06-10T12:27:04;97581.25;;;27.99;42.91
22181;BME280;11256;50.830;12.834;2023-06-10T12:32:04;97573.31;;;28.12;44.23
22181;BME280;11256;50.830;12.834;2023-06-10T12:37:12;97562.97;;;28.40;43.27
22181;BME280;11256;50.830;12.834;2023-06-10T12:42:13;97575.72;;;28.52;42.68
22181;BME280;11256;50.830;12.834;2023-06-10T12:47:14;97556.56;;;28.71;44.24
22181;BME280;11256;50.830;12.834;2023-06-10T12:52:14;97563.75;;;28.62;40.31
22181;BME280;11256;50.830;12.834;2023-06-10T12:57:14;97578.47;;;28.97;42.16
22181;BME280;11256;50.830;12.834;2023-06-10T13:02:15;97588.44;;;28.88;41.75
22181;BME280;11256;50.830;12.834;2023-06-10T13:07:16;97583.59;;;29.13;40.77
22181;BME280;11256;50.830;12.834;2023-06-10T13:12:16;97586.84;;;28.80;39.37
22181;BME280;11256;50.830;12.834;2023-06-10T13:17:17;97606.00;;;28.71;40.97
22181;BME280;11256;50.830;12.834;2023-06-10T13:22:18;97594.84;;;28.39;38.58
22181;BME280;11256;50.830;12.834;2023-06-10T13:27:20;97594.81;;;28.64;40.00
22181;BME280;11256;50.830;12.834;2023-06-10T13:32:20;97577.72;;;28.55;38.07
22181;BME280;11256;50.830;12.834;2023-06-10T13:37:21;97575.22;;;28.92;40.69
22181;BME280;11256;50.830;12.834;2023-06-10T13:42:21;97564.41;;;29.25;39.18
22181;BME280;11256;50.830;12.834;2023-06-10T13:47:21;97572.31;;;29.44;38.58
22181;BME280;11256;50.830;12.834;2023-06-10T13:52:22;97563.31;;;28.84;36.05
22181;BME280;11256;50.830;12.834;2023-06-10T13:57:22;97568.13;;;28.77;37.67
22181;BME280;11256;50.830;12.834;2023-06-10T14:02:23;97562.16;;;28.33;35.19
22181;BME280;11256;50.830;12.834;2023-06-10T14:07:23;97547.75;;;28.80;39.68
22181;BME280;11256;50.830;12.834;2023-06-10T14:12:23;97551.34;;;28.84;37.09
22181;BME280;11256;50.830;12.834;2023-06-10T14:17:23;97552.53;;;28.90;35.49
22181;BME280;11256;50.830;12.834;2023-06-10T14:22:24;97552.94;;;28.99;36.76
22181;BME280;11256;50.830;12.834;2023-06-10T14:27:24;97554.09;;;29.08;36.45
22181;BME280;11256;50.830;12.834;2023-06-10T14:32:25;97556.56;;;28.54;32.18
22181;BME280;11256;50.830;12.834;2023-06-10T14:37:25;97556.22;;;28.45;33.70
22181;BME280;11256;50.830;12.834;2023-06-10T14:42:26;97547.78;;;28.73;34.55
22181;BME280;11256;50.830;12.834;2023-06-10T14:47:26;97556.13;;;28.87;36.11
22181;BME280;11256;50.830;12.834;2023-06-10T14:52:26;97554.53;;;28.93;34.52
22181;BME280;11256;50.830;12.834;2023-06-10T14:57:27;97558.78;;;29.29;35.19
22181;BME280;11256;50.830;12.834;2023-06-10T15:02:27;97545.53;;;29.43;36.21
22181;BME280;11256;50.830;12.834;2023-06-10T15:07:27;97550.06;;;29.20;32.16
22181;BME280;11256;50.830;12.834;2023-06-10T15:12:28;97533.16;;;29.55;32.77
22181;BME280;11256;50.830;12.834;2023-06-10T15:17:28;97549.91;;;29.55;34.14
22181;BME280;11256;50.830;12.834;2023-06-10T15:22:29;97553.78;;;29.75;33.67
22181;BME280;11256;50.830;12.834;2023-06-10T15:27:29;97527.16;;;29.46;34.17
22181;BME280;11256;50.830;12.834;2023-06-10T15:32:29;97541.88;;;29.64;34.54
22181;BME280;11256;50.830;12.834;2023-06-10T15:37:30;97534.44;;;30.01;35.03
22181;BME280;11256;50.830;12.834;2023-06-10T15:42:30;97543.72;;;30.39;36.03
22181;BME280;11256;50.830;12.834;2023-06-10T15:47:30;97542.19;;;30.34;34.43
22181;BME280;11256;50.830;12.834;2023-06-10T15:52:31;97531.25;;;29.99;34.09
22181;BME280;11256;50.830;12.834;2023-06-10T15:57:31;97542.50;;;29.89;33.28
22181;BME280;11256;50.830;12.834;2023-06-10T16:02:31;97540.63;;;29.72;33.26
22181;BME280;11256;50.830;12.834;2023-06-10T16:07:32;97547.16;;;29.41;32.83
22181;BME280;11256;50.830;12.834;2023-06-10T16:12:32;97533.22;;;29.37;33.32
22181;BME280;11256;50.830;12.834;2023-06-10T16:17:32;97540.38;;;29.42;32.72
22181;BME280;11256;50.830;12.834;2023-06-10T16:22:32;97562.75;;;29.35;31.90
22181;BME280;11256;50.830;12.834;2023-06-10T16:27:33;97564.88;;;29.10;32.84
22181;BME280;11256;50.830;12.834;2023-06-10T16:32:33;97533.88;;;28.52;31.77
22181;BME280;11256;50.830;12.834;2023-06-10T16:37:33;97563.31;;;28.74;32.98
22181;BME280;11256;50.830;12.834;2023-06-10T16:42:34;97565.31;;;28.77;32.82
22181;BME280;11256;50.830;12.834;2023-06-10T16:47:34;97562.94;;;28.65;33.61
22181;BME280;11256;50.830;12.834;2023-06-10T16:52:34;97579.72;;;28.44;33.63
22181;BME280;11256;50.830;12.834;2023-06-10T16:57:35;97588.47;;;28.60;35.05
22181;BME280;11256;50.830;12.834;2023-06-10T17:02:35;97590.06;;;28.54;34.23
22181;BME280;11256;50.830;12.834;2023-06-10T17:07:35;97586.09;;;28.51;35.47
22181;BME280;11256;50.830;12.834;2023-06-10T17:12:36;97607.19;;;28.42;34.96
22181;BME280;11256;50.830;12.834;2023-06-10T17:17:36;97596.44;;;28.16;34.72
22181;BME280;11256;50.830;12.834;2023-06-10T17:22:36;97585.59;;;27.79;34.51
22181;BME280;11256;50.830;12.834;2023-06-10T17:27:36;97601.88;;;27.74;35.22
22181;BME280;11256;50.830;12.834;2023-06-10T17:32:37;97596.25;;;27.60;35.55
22181;BME280;11256;50.830;12.834;2023-06-10T17:37:40;97605.06;;;27.65;35.62
22181;BME280;11256;50.830;12.834;2023-06-10T17:42:40;97604.25;;;27.65;36.33
22181;BME280;11256;50.830;12.834;2023-06-10T17:47:40;97605.88;;;27.73;36.89
22181;BME280;11256;50.830;12.834;2023-06-10T17:52:41;97605.84;;;27.69;36.82
22181;BME280;11256;50.830;12.834;2023-06-10T17:57:41;97590.31;;;27.58;37.35
22181;BME280;11256;50.830;12.834;2023-06-10T18:02:41;97604.25;;;27.65;37.38
22181;BME280;11256;50.830;12.834;2023-06-10T18:07:42;97606.59;;;27.52;37.43
22181;BME280;11256;50.830;12.834;2023-06-10T18:12:42;97612.22;;;27.66;38.26
22181;BME280;11256;50.830;12.834;2023-06-10T18:17:42;97602.66;;;27.60;38.04
22181;BME280;11256;50.830;12.834;2023-06-10T18:22:43;97597.47;;;27.55;38.54
22181;BME280;11256;50.830;12.834;2023-06-10T18:27:43;97620.13;;;27.61;38.85
22181;BME280;11256;50.830;12.834;2023-06-10T18:32:43;97626.50;;;27.58;38.98
22181;BME280;11256;50.830;12.834;2023-06-10T18:37:44;97644.84;;;27.66;38.99
22181;BME280;11256;50.830;12.834;2023-06-10T18:42:44;97640.44;;;27.58;39.19
22181;BME280;11256;50.830;12.834;2023-06-10T18:47:44;97649.19;;;27.63;39.02
22181;BME280;11256;50.830;12.834;2023-06-10T18:52:45;97660.75;;;27.62;39.22
22181;BME280;11256;50.830;12.834;2023-06-10T18:57:45;97660.34;;;27.63;39.03
22181;BME280;11256;50.830;12.834;2023-06-10T19:02:45;97669.50;;;27.57;39.17
22181;BME280;11256;50.830;12.834;2023-06-10T19:07:46;97676.66;;;27.58;39.11
22181;BME280;11256;50.830;12.834;2023-06-10T19:12:46;97679.81;;;27.49;39.43
22181;BME280;11256;50.830;12.834;2023-06-10T19:17:46;97681.75;;;27.45;39.15
22181;BME280;11256;50.830;12.834;2023-06-10T19:22:47;97693.63;;;27.35;39.31
22181;BME280;11256;50.830;12.834;2023-06-10T19:27:47;97705.94;;;27.27;39.20
22181;BME280;11256;50.830;12.834;2023-06-10T19:32:47;97701.81;;;27.11;39.09
22181;BME280;11256;50.830;12.834;2023-06-10T19:37:49;97712.91;;;27.04;39.74
22181;BME280;11256;50.830;12.834;2023-06-10T19:42:49;97718.44;;;27.00;39.65
22181;BME280;11256;50.830;12.834;2023-06-10T19:47:51;97724.69;;;26.87;39.80
22181;BME280;11256;50.830;12.834;2023-06-10T19:52:51;97728.19;;;26.77;39.66
22181;BME280;11256;50.830;12.834;2023-06-10T19:57:51;97722.94;;;26.65;39.87
22181;BME280;11256;50.830;12.834;2023-06-10T20:02:55;97722.44;;;26.56;39.97
22181;BME280;11256;50.830;12.834;2023-06-10T20:07:55;97728.25;;;26.44;40.26
22181;BME280;11256;50.830;12.834;2023-06-10T20:12:55;97708.63;;;26.30;40.32
22181;BME280;11256;50.830;12.834;2023-06-10T20:17:56;97723.28;;;26.23;40.57
22181;BME280;11256;50.830;12.834;2023-06-10T20:22:56;97726.75;;;26.13;40.83
22181;BME280;11256;50.830;12.834;2023-06-10T20:27:57;97733.34;;;26.02;40.97
22181;BME280;11256;50.830;12.834;2023-06-10T20:32:57;97728.03;;;25.90;41.14
22181;BME280;11256;50.830;12.834;2023-06-10T20:37:57;97740.63;;;25.80;41.54
22181;BME280;11256;50.830;12.834;2023-06-10T20:42:58;97736.88;;;25.66;41.82
22181;BME280;11256;50.830;12.834;2023-06-10T20:47:58;97741.03;;;25.53;42.11
22181;BME280;11256;50.830;12.834;2023-06-10T20:52:58;97736.56;;;25.45;42.14
22181;BME280;11256;50.830;12.834;2023-06-10T20:57:59;97743.50;;;25.32;42.36
22181;BME280;11256;50.830;12.834;2023-06-10T21:02:59;97737.78;;;25.21;42.35
22181;BME280;11256;50.830;12.834;2023-06-10T21:08:00;97736.81;;;25.10;42.46
22181;BME280;11256;50.830;12.834;2023-06-10T21:13:00;97744.56;;;24.98;42.74
22181;BME280;11256;50.830;12.834;2023-06-10T21:18:01;97733.56;;;24.79;43.21
22181;BME280;11256;50.830;12.834;2023-06-10T21:23:01;97742.19;;;24.74;42.94
22181;BME280;11256;50.830;12.834;2023-06-10T21:28:01;97756.66;;;24.64;43.44
22181;BME280;11256;50.830;12.834;2023-06-10T21:33:02;97746.09;;;24.50;43.33
22181;BME280;11256;50.830;12.834;2023-06-10T21:38:02;97749.84;;;24.39;43.93
22181;BME280;11256;50.830;12.834;2023-06-10T21:43:02;97755.97;;;24.29;44.05
22181;BME280;11256;50.830;12.834;2023-06-10T21:48:03;97748.13;;;24.12;43.93
22181;BME280;11256;50.830;12.834;2023-06-10T21:53:03;97756.75;;;24.07;44.30
22181;BME280;11256;50.830;12.834;2023-06-10T21:58:03;97764.03;;;23.96;44.51
22181;BME280;11256;50.830;12.834;2023-06-10T22:03:04;97763.00;;;23.85;44.62
22181;BME280;11256;50.830;12.834;2023-06-10T22:08:04;97770.72;;;23.76;44.67
22181;BME280;11256;50.830;12.834;2023-06-10T22:13:04;97767.28;;;23.63;44.97
22181;BME280;11256;50.830;12.834;2023-06-10T22:18:08;97765.44;;;23.52;44.93
22181;BME280;11256;50.830;12.834;2023-06-10T22:23:08;97769.22;;;23.44;45.12
22181;BME280;11256;50.830;12.834;2023-06-10T22:28:08;97764.25;;;23.34;45.20
22181;BME280;11256;50.830;12.834;2023-06-10T22:33:09;97761.63;;;23.22;45.33
22181;BME280;11256;50.830;12.834;2023-06-10T22:38:09;97738.16;;;23.00;45.30
22181;BME280;11256;50.830;12.834;2023-06-10T22:43:10;97755.13;;;22.99;45.23
22181;BME280;11256;50.830;12.834;2023-06-10T22:48:11;97751.38;;;22.91;45.57
22181;BME280;11256;50.830;12.834;2023-06-10T22:53:11;97757.38;;;22.78;45.59
22181;BME280;11256;50.830;12.834;2023-06-10T22:58:12;97759.66;;;22.76;45.94
22181;BME280;11256;50.830;12.834;2023-06-10T23:03:12;97763.50;;;22.71;45.74
22181;BME280;11256;50.830;12.834;2023-06-10T23:08:13;97760.50;;;22.61;45.93
22181;BME280;11256;50.830;12.834;2023-06-10T23:13:13;97758.25;;;22.51;46.08
22181;BME280;11256;50.830;12.834;2023-06-10T23:18:13;97757.25;;;22.43;46.34
22181;BME280;11256;50.830;12.834;2023-06-10T23:23:14;97756.94;;;22.33;46.13
22181;BME280;11256;50.830;12.834;2023-06-10T23:28:14;97751.31;;;22.14;46.23
22181;BME280;11256;50.830;12.834;2023-06-10T23:33:14;97765.13;;;22.14;46.33
22181;BME280;11256;50.830;12.834;2023-06-10T23:38:18;97756.44;;;22.00;46.48
22181;BME280;11256;50.830;12.834;2023-06-10T23:43:18;97758.31;;;21.96;46.74
22181;BME280;11256;50.830;12.834;2023-06-10T23:48:18;97770.28;;;21.88;46.62
22181;BME280;11256;50.830;12.834;2023-06-10T23:53:19;97764.16;;;21.79;46.89
22181;BME280;11256;50.830;12.834;2023-06-10T23:58:19;97773.34;;;21.71;46.93
